createdAt,value
2023-11-19T00:01:10.088Z,13.70
2023-11-19T00:03:37.210Z,13.27
2023-11-19T00:06:05.602Z,13.27
2023-11-19T00:08:32.609Z,16.90
2023-11-19T00:10:59.636Z,17.97
2023-11-19T00:13:27.216Z,16.67
2023-11-19T00:15:54.270Z,12.10
2023-11-19T00:18:21.879Z,17.03
2023-11-19T00:20:48.846Z,14.17
2023-11-19T00:23:15.879Z,16.17
2023-11-19T00:25:42.874Z,13.97
2023-11-19T00:28:09.911Z,13.77
2023-11-19T00:30:36.869Z,12.57
2023-11-19T00:33:03.876Z,15.87
2023-11-19T00:35:32.833Z,11.57
2023-11-19T00:37:59.892Z,14.90
2023-11-19T00:40:26.988Z,14.87
2023-11-19T00:42:54.000Z,13.50
2023-11-19T00:45:21.120Z,13.50
2023-11-19T00:47:48.430Z,12.20
2023-11-19T00:50:15.454Z,13.00
2023-11-19T00:52:42.852Z,13.53
2023-11-19T00:55:10.016Z,13.20
2023-11-19T00:57:37.359Z,15.10
2023-11-19T01:00:20.629Z,14.90
2023-11-19T01:02:50.956Z,13.20
2023-11-19T01:05:22.350Z,10.43
2023-11-19T01:07:49.916Z,11.10
2023-11-19T01:10:17.303Z,14.93
2023-11-19T01:12:44.343Z,14.80
2023-11-19T01:15:11.379Z,14.60
2023-11-19T01:17:39.226Z,10.77
2023-11-19T01:20:07.724Z,12.30
2023-11-19T01:22:34.858Z,15.73
2023-11-19T01:25:01.878Z,13.77
2023-11-19T01:27:28.825Z,16.17
2023-11-19T01:29:55.945Z,11.47
2023-11-19T01:32:25.136Z,16.17
2023-11-19T01:34:52.091Z,13.17
2023-11-19T01:37:19.122Z,12.50
2023-11-19T01:39:58.717Z,15.00
2023-11-19T01:42:26.848Z,13.60
2023-11-19T01:45:00.759Z,16.67
2023-11-19T01:47:29.743Z,18.47
2023-11-19T01:49:58.242Z,12.83
2023-11-19T01:52:26.490Z,12.10
2023-11-19T01:54:55.715Z,18.13
2023-11-19T01:57:24.341Z,15.97
2023-11-19T01:59:53.417Z,11.60
2023-11-19T02:02:23.735Z,15.53
2023-11-19T02:04:52.380Z,21.97
2023-11-19T02:07:19.877Z,16.70
2023-11-19T02:09:46.809Z,17.70
2023-11-19T02:12:13.842Z,17.53
2023-11-19T02:14:41.446Z,16.90
2023-11-19T02:17:08.460Z,17.73
2023-11-19T02:19:35.434Z,17.53
2023-11-19T02:22:02.627Z,19.10
2023-11-19T02:24:32.424Z,16.63
2023-11-19T02:27:17.809Z,16.00
2023-11-19T02:29:44.830Z,18.47
2023-11-19T02:32:14.640Z,19.63
2023-11-19T02:34:41.687Z,19.60
2023-11-19T02:37:09.290Z,15.43
2023-11-19T02:39:36.256Z,16.73
2023-11-19T02:42:03.196Z,17.43
2023-11-19T02:44:31.537Z,15.93
2023-11-19T02:47:00.614Z,19.07
2023-11-19T02:49:27.639Z,16.60
2023-11-19T02:51:54.651Z,13.03
2023-11-19T02:54:22.568Z,13.03
2023-11-19T02:56:56.350Z,15.43
2023-11-19T02:59:29.016Z,14.07
2023-11-19T03:01:56.431Z,14.67
2023-11-19T03:04:24.382Z,11.30
2023-11-19T03:06:51.298Z,18.03
2023-11-19T03:09:18.247Z,17.33
2023-11-19T03:11:45.107Z,13.67
2023-11-19T03:14:12.220Z,16.40
2023-11-19T03:16:39.202Z,13.30
2023-11-19T03:19:06.263Z,12.13
2023-11-19T03:21:33.348Z,15.70
2023-11-19T03:24:01.258Z,16.10
2023-11-19T03:26:28.792Z,14.97
2023-11-19T03:28:56.899Z,16.30
2023-11-19T03:31:24.095Z,13.70
2023-11-19T03:33:51.152Z,14.87
2023-11-19T03:36:18.601Z,15.30
2023-11-19T03:38:45.601Z,12.20
2023-11-19T03:41:16.291Z,14.67
2023-11-19T03:43:43.485Z,18.93
2023-11-19T03:46:23.178Z,11.60
2023-11-19T03:48:51.187Z,19.37
2023-11-19T03:51:18.801Z,17.43
2023-11-19T03:53:48.848Z,18.33
2023-11-19T03:56:15.864Z,18.63
2023-11-19T03:58:43.210Z,13.63
2023-11-19T04:01:17.122Z,16.13
2023-11-19T04:06:17.082Z,14.83
2023-11-19T04:08:44.140Z,16.23
2023-11-19T04:11:11.749Z,14.13
2023-11-19T04:13:38.883Z,12.90
2023-11-19T04:16:06.241Z,15.77
2023-11-19T04:18:33.297Z,12.33
2023-11-19T04:21:00.412Z,17.67
2023-11-19T04:23:27.292Z,13.43
2023-11-19T04:25:54.378Z,17.27
2023-11-19T04:28:21.338Z,15.40
2023-11-19T04:30:48.345Z,17.23
2023-11-19T04:33:16.013Z,16.30
2023-11-19T04:35:42.987Z,16.10
2023-11-19T04:38:09.975Z,11.67
2023-11-19T04:40:37.134Z,17.33
2023-11-19T04:43:04.135Z,13.07
2023-11-19T04:45:31.125Z,22.87
2023-11-19T04:47:58.094Z,16.73
2023-11-19T04:50:26.960Z,19.00
2023-11-19T04:52:54.913Z,19.20
2023-11-19T04:55:21.903Z,17.13
2023-11-19T04:57:48.998Z,16.47
2023-11-19T05:00:17.804Z,16.90
2023-11-19T05:02:45.118Z,15.37
2023-11-19T05:05:12.816Z,15.60
2023-11-19T05:07:39.949Z,15.47
2023-11-19T05:10:08.201Z,15.80
2023-11-19T05:12:35.264Z,14.30
2023-11-19T05:15:02.262Z,15.13
2023-11-19T05:17:29.521Z,16.37
2023-11-19T05:19:56.570Z,15.43
2023-11-19T05:22:23.978Z,18.13
2023-11-19T05:24:51.053Z,18.30
2023-11-19T05:27:18.077Z,22.00
2023-11-19T05:29:45.186Z,18.10
2023-11-19T05:32:12.597Z,16.93
2023-11-19T05:34:51.758Z,21.07
2023-11-19T05:37:19.760Z,17.27
2023-11-19T05:39:47.122Z,16.20
2023-11-19T05:42:14.170Z,16.60
2023-11-19T05:44:41.906Z,14.53
2023-11-19T05:47:09.269Z,19.20
2023-11-19T05:49:36.358Z,19.33
2023-11-19T05:52:04.613Z,23.87
2023-11-19T05:54:32.728Z,21.30
2023-11-19T05:56:59.751Z,18.00
2023-11-19T05:59:27.174Z,16.03
2023-11-19T06:01:54.293Z,18.40
2023-11-19T06:04:21.444Z,18.17
2023-11-19T06:06:48.475Z,21.30
2023-11-19T06:09:15.534Z,18.93
2023-11-19T06:11:42.518Z,15.70
2023-11-19T06:14:09.524Z,17.03
2023-11-19T06:16:38.205Z,19.17
2023-11-19T06:19:05.566Z,12.07
2023-11-19T06:21:32.747Z,19.63
2023-11-19T06:24:00.446Z,16.97
2023-11-19T06:26:28.083Z,16.87
2023-11-19T06:28:55.350Z,17.60
2023-11-19T06:31:22.794Z,21.33
2023-11-19T06:33:49.755Z,22.17
2023-11-19T06:36:17.613Z,20.97
2023-11-19T06:38:45.099Z,18.47
2023-11-19T06:41:12.426Z,15.97
2023-11-19T06:46:19.116Z,18.43
2023-11-19T06:48:46.529Z,16.33
2023-11-19T06:51:14.181Z,17.80
2023-11-19T06:53:41.475Z,15.67
2023-11-19T06:56:22.931Z,12.93
2023-11-19T06:58:50.795Z,13.27
2023-11-19T07:01:19.435Z,13.37
2023-11-19T07:03:50.541Z,19.77
2023-11-19T07:06:17.770Z,22.37
2023-11-19T07:08:48.441Z,15.90
2023-11-19T07:11:17.437Z,13.40
2023-11-19T07:13:44.489Z,16.60
2023-11-19T07:16:11.448Z,13.30
2023-11-19T07:18:38.510Z,14.10
2023-11-19T07:21:06.435Z,17.40
2023-11-19T07:23:35.273Z,10.17
2023-11-19T07:26:02.784Z,12.10
2023-11-19T07:28:29.910Z,13.27
2023-11-19T07:30:57.708Z,13.97
2023-11-19T07:33:24.787Z,14.83
2023-11-19T07:35:52.187Z,14.30
2023-11-19T07:38:19.297Z,15.20
2023-11-19T07:40:56.977Z,11.30
2023-11-19T07:43:24.373Z,13.03
2023-11-19T07:45:51.475Z,11.20
2023-11-19T07:48:23.709Z,17.67
2023-11-19T07:50:54.032Z,12.97
2023-11-19T07:53:21.433Z,11.83
2023-11-19T07:55:48.379Z,12.93
2023-11-19T07:58:15.357Z,18.47
2023-11-19T08:00:42.570Z,15.47
2023-11-19T08:03:09.973Z,16.80
2023-11-19T08:05:37.615Z,13.10
2023-11-19T08:08:04.854Z,12.57
2023-11-19T08:10:31.747Z,17.30
2023-11-19T08:12:58.726Z,11.70
2023-11-19T08:17:55.646Z,12.43
2023-11-19T08:20:23.151Z,12.93
2023-11-19T08:22:50.236Z,13.23
2023-11-19T08:25:17.337Z,14.53
2023-11-19T08:27:44.364Z,11.27
2023-11-19T08:30:11.964Z,14.20
2023-11-19T08:32:39.050Z,33.27
2023-11-19T08:35:06.754Z,12.97
2023-11-19T08:37:34.064Z,12.33
2023-11-19T08:40:02.065Z,13.30
2023-11-19T08:42:28.923Z,13.47
2023-11-19T08:44:55.957Z,10.17
2023-11-19T08:47:26.113Z,8.67
2023-11-19T08:52:23.921Z,12.90
2023-11-19T08:54:51.002Z,11.17
2023-11-19T08:57:18.041Z,11.83
2023-11-19T08:59:46.934Z,9.80
2023-11-19T09:02:14.011Z,10.00
2023-11-19T09:04:42.056Z,10.20
2023-11-19T09:07:10.902Z,8.70
2023-11-19T09:09:37.891Z,17.10
2023-11-19T09:12:05.241Z,14.37
2023-11-19T09:14:32.201Z,12.87
2023-11-19T09:16:59.427Z,16.20
2023-11-19T09:19:27.471Z,10.27
2023-11-19T09:21:55.050Z,14.23
2023-11-19T09:24:21.992Z,11.47
2023-11-19T09:26:49.143Z,8.67
2023-11-19T09:29:16.405Z,11.70
2023-11-19T09:31:43.371Z,11.47
2023-11-19T09:34:10.367Z,10.47
2023-11-19T09:36:37.567Z,8.93
2023-11-19T09:39:05.512Z,8.40
2023-11-19T09:41:33.990Z,9.00
2023-11-19T09:44:01.070Z,9.23
2023-11-19T09:46:30.959Z,8.43
2023-11-19T09:49:00.451Z,8.77
2023-11-19T09:51:27.497Z,8.43
2023-11-19T09:53:54.694Z,8.80
2023-11-19T09:56:21.894Z,7.07
2023-11-19T09:58:48.935Z,9.03
2023-11-19T10:03:49.088Z,7.77
2023-11-19T10:06:17.125Z,10.20
2023-11-19T10:08:45.023Z,8.87
2023-11-19T10:11:13.733Z,8.90
2023-11-19T10:13:41.000Z,9.57
2023-11-19T10:16:14.050Z,7.97
2023-11-19T10:18:54.075Z,9.50
2023-11-19T10:21:21.271Z,9.77
2023-11-19T10:23:58.377Z,10.27
2023-11-19T10:26:25.490Z,8.37
2023-11-19T10:28:52.496Z,9.33
2023-11-19T10:31:25.872Z,8.70
2023-11-19T10:33:53.971Z,15.13
2023-11-19T10:36:23.351Z,12.93
2023-11-19T10:38:56.276Z,11.73
2023-11-19T10:41:33.477Z,12.50
2023-11-19T10:44:01.064Z,13.03
2023-11-19T10:46:43.264Z,9.73
2023-11-19T10:49:11.824Z,13.57
2023-11-19T10:51:47.256Z,9.67
2023-11-19T10:54:16.686Z,13.33
2023-11-19T10:56:45.992Z,12.13
2023-11-19T11:01:46.913Z,11.47
2023-11-19T11:04:24.126Z,13.30
2023-11-19T11:06:52.629Z,12.20
2023-11-19T11:09:19.981Z,11.83
2023-11-19T11:11:48.929Z,10.00
2023-11-19T11:14:17.451Z,8.13
2023-11-19T11:16:45.617Z,11.70
2023-11-19T11:19:13.781Z,10.23
2023-11-19T11:21:45.176Z,11.80
2023-11-19T11:24:43.210Z,10.60
2023-11-19T11:27:38.345Z,10.63
2023-11-19T11:30:40.478Z,15.57
2023-11-19T11:33:30.839Z,16.60
2023-11-19T11:36:21.458Z,16.27
2023-11-19T11:38:51.187Z,13.40
2023-11-19T11:41:29.629Z,13.23
2023-11-19T11:43:58.020Z,13.83
2023-11-19T11:46:34.365Z,13.07
2023-11-19T11:49:06.565Z,16.10
2023-11-19T11:51:45.933Z,15.37
2023-11-19T11:54:32.026Z,16.10
2023-11-19T11:57:14.396Z,15.63
2023-11-19T11:59:51.795Z,16.40
2023-11-19T12:02:22.979Z,14.87
2023-11-19T12:04:53.366Z,13.57
2023-11-19T12:07:23.505Z,16.43
2023-11-19T12:10:10.207Z,14.17
2023-11-19T12:12:39.397Z,19.37
2023-11-19T12:15:11.504Z,15.77
2023-11-19T12:17:46.844Z,16.43
2023-11-19T12:20:14.149Z,14.63
2023-11-19T12:22:43.305Z,15.70
2023-11-19T12:25:15.453Z,17.90
2023-11-19T12:27:47.630Z,14.20
2023-11-19T12:30:22.823Z,14.83
2023-11-19T12:32:50.524Z,12.70
2023-11-19T12:35:17.683Z,14.60
2023-11-19T12:37:46.864Z,14.23
2023-11-19T12:40:18.294Z,13.37
2023-11-19T12:42:46.864Z,19.60
2023-11-19T12:45:14.819Z,16.07
2023-11-19T12:47:42.122Z,12.77
2023-11-19T12:50:10.778Z,11.73
2023-11-19T12:52:38.873Z,14.50
2023-11-19T12:57:56.160Z,15.63
2023-11-19T13:00:24.835Z,12.73
2023-11-19T13:02:55.964Z,15.73
2023-11-19T13:05:37.550Z,17.20
2023-11-19T13:08:09.808Z,14.77
2023-11-19T13:10:55.166Z,14.20
2023-11-19T13:13:22.204Z,14.00
2023-11-19T13:15:49.607Z,14.97
2023-11-19T13:18:18.345Z,17.43
2023-11-19T13:20:45.343Z,16.90
2023-11-19T13:23:12.412Z,15.87
2023-11-19T13:25:39.352Z,13.93
2023-11-19T13:28:07.126Z,16.10
2023-11-19T13:30:34.172Z,17.00
2023-11-19T13:33:02.179Z,16.50
2023-11-19T13:35:29.424Z,17.10
2023-11-19T13:37:56.354Z,17.60
2023-11-19T13:40:25.640Z,19.07
2023-11-19T13:42:53.038Z,16.67
2023-11-19T13:45:21.877Z,15.23
2023-11-19T13:47:48.957Z,16.53
2023-11-19T13:50:18.210Z,14.60
2023-11-19T13:52:48.529Z,13.23
2023-11-19T13:55:16.158Z,16.03
2023-11-19T13:57:44.712Z,17.50
2023-11-19T14:00:14.675Z,17.40
2023-11-19T14:02:42.357Z,14.83
2023-11-19T14:05:12.024Z,13.10
2023-11-19T14:07:40.689Z,14.70
2023-11-19T14:10:10.417Z,11.87
2023-11-19T14:12:41.181Z,16.40
2023-11-19T14:15:18.251Z,17.30
2023-11-19T14:17:45.690Z,15.17
2023-11-19T14:20:16.687Z,14.53
2023-11-19T14:22:45.283Z,15.37
2023-11-19T14:25:12.879Z,16.17
2023-11-19T14:27:41.962Z,15.87
2023-11-19T14:30:14.577Z,16.00
2023-11-19T14:32:44.966Z,13.97
2023-11-19T14:35:11.875Z,16.27
2023-11-19T14:37:39.674Z,19.50
2023-11-19T14:40:10.104Z,13.93
2023-11-19T14:42:38.142Z,18.73
2023-11-19T14:45:06.115Z,15.00
2023-11-19T14:47:34.181Z,18.53
2023-11-19T14:50:01.585Z,16.10
2023-11-19T14:52:28.676Z,14.40
2023-11-19T14:54:57.686Z,13.87
2023-11-19T14:57:24.779Z,11.30
2023-11-19T14:59:51.833Z,12.50
2023-11-19T15:02:19.404Z,12.30
2023-11-19T15:04:46.533Z,8.70
2023-11-19T15:07:13.803Z,9.33
2023-11-19T15:09:42.524Z,9.60
2023-11-19T15:12:10.195Z,11.13
2023-11-19T15:14:37.674Z,12.20
2023-11-19T15:17:05.047Z,11.07
2023-11-19T15:19:32.075Z,9.90
2023-11-19T15:21:58.998Z,12.70
2023-11-19T15:24:26.599Z,13.23
2023-11-19T15:26:53.664Z,13.83
2023-11-19T15:29:22.047Z,15.47
2023-11-19T15:31:50.158Z,15.77
2023-11-19T15:34:17.259Z,15.50
2023-11-19T15:36:44.481Z,15.00
2023-11-19T15:39:11.465Z,15.70
2023-11-19T15:41:41.520Z,16.70
2023-11-19T15:44:08.969Z,14.23
2023-11-19T15:46:35.934Z,14.47
2023-11-19T15:49:03.838Z,12.50
2023-11-19T15:51:30.801Z,14.27
2023-11-19T15:53:57.726Z,14.00
2023-11-19T15:56:24.715Z,13.60
2023-11-19T15:58:51.661Z,13.13
2023-11-19T16:01:19.314Z,15.63
2023-11-19T16:06:16.674Z,14.10
2023-11-19T16:08:44.364Z,10.97
2023-11-19T16:11:11.544Z,13.60
2023-11-19T16:13:38.613Z,14.40
2023-11-19T16:16:06.907Z,13.50
2023-11-19T16:18:34.577Z,12.80
2023-11-19T16:21:02.544Z,14.90
2023-11-19T16:23:29.530Z,15.90
2023-11-19T16:25:56.492Z,19.33
2023-11-19T16:28:25.197Z,21.53
2023-11-19T16:30:53.502Z,14.00
2023-11-19T16:33:28.522Z,17.57
2023-11-19T16:36:01.485Z,17.20
2023-11-19T16:38:29.682Z,15.83
2023-11-19T16:40:57.113Z,16.83
2023-11-19T16:43:24.879Z,20.50
2023-11-19T16:45:51.947Z,13.97
2023-11-19T16:48:18.998Z,14.67
2023-11-19T16:51:04.241Z,14.60
2023-11-19T16:53:31.809Z,14.20
2023-11-19T16:55:58.807Z,17.23
2023-11-19T16:58:25.742Z,15.63
2023-11-19T17:00:52.717Z,14.80
2023-11-19T17:03:19.859Z,13.70
2023-11-19T17:05:46.847Z,15.40
2023-11-19T17:08:13.781Z,15.30
2023-11-19T17:10:43.173Z,16.40
2023-11-19T17:13:10.394Z,13.57
2023-11-19T17:15:38.150Z,11.43
2023-11-19T17:18:05.952Z,12.50
2023-11-19T17:20:32.993Z,12.90
2023-11-19T17:22:59.998Z,16.63
2023-11-19T17:25:26.905Z,17.47
2023-11-19T17:27:53.842Z,18.30
2023-11-19T17:30:20.800Z,14.20
2023-11-19T17:32:47.968Z,12.00
2023-11-19T17:35:15.362Z,16.40
2023-11-19T17:37:42.635Z,17.17
2023-11-19T17:40:12.263Z,22.23
2023-11-19T17:42:39.218Z,14.50
2023-11-19T17:45:07.303Z,13.40
2023-11-19T17:47:34.372Z,16.87
2023-11-19T17:50:01.457Z,15.30
2023-11-19T17:52:28.463Z,12.60
2023-11-19T17:54:55.517Z,18.77
2023-11-19T17:57:22.825Z,14.50
2023-11-19T17:59:51.110Z,12.67
2023-11-19T18:02:19.672Z,13.53
2023-11-19T18:04:49.322Z,20.53
2023-11-19T18:07:18.255Z,18.13
2023-11-19T18:09:46.106Z,14.17
2023-11-19T18:12:16.611Z,18.07
2023-11-19T18:17:14.329Z,17.53
2023-11-19T18:19:41.694Z,22.27
2023-11-19T18:22:09.463Z,20.20
2023-11-19T18:24:37.814Z,19.03
2023-11-19T18:27:07.230Z,20.47
2023-11-19T18:29:36.660Z,21.97
2023-11-19T18:32:04.642Z,25.57
2023-11-19T18:34:31.858Z,26.77
2023-11-19T18:36:58.790Z,21.90
2023-11-19T18:39:26.070Z,27.13
2023-11-19T18:41:53.150Z,24.00
2023-11-19T18:44:20.475Z,27.43
2023-11-19T18:46:47.825Z,23.10
2023-11-19T18:49:14.763Z,24.80
2023-11-19T18:51:41.750Z,26.47
2023-11-19T18:54:09.445Z,29.77
2023-11-19T18:56:36.503Z,23.50
2023-11-19T18:59:04.744Z,23.27
2023-11-19T19:01:33.305Z,24.00
2023-11-19T19:04:00.571Z,23.80
2023-11-19T19:06:27.659Z,26.00
2023-11-19T19:08:54.647Z,23.13
2023-11-19T19:11:22.232Z,26.57
2023-11-19T19:13:49.236Z,29.37
2023-11-19T19:16:16.301Z,22.10
2023-11-19T19:18:43.737Z,24.13
2023-11-19T19:21:12.201Z,25.67
2023-11-19T19:23:39.150Z,26.50
2023-11-19T19:26:07.443Z,20.23
2023-11-19T19:28:38.414Z,22.13
2023-11-19T19:31:06.779Z,24.00
2023-11-19T19:33:34.030Z,24.20
2023-11-19T19:36:01.047Z,22.77
2023-11-19T19:38:28.077Z,21.70
2023-11-19T19:40:55.859Z,19.30
2023-11-19T19:43:22.835Z,22.10
2023-11-19T19:45:50.259Z,24.93
2023-11-19T19:48:17.295Z,21.67
2023-11-19T19:50:44.224Z,22.13
2023-11-19T19:53:12.024Z,21.23
2023-11-19T19:55:39.818Z,17.47
2023-11-19T19:58:08.646Z,17.37
2023-11-19T20:00:35.592Z,18.50
2023-11-19T20:03:03.880Z,19.13
2023-11-19T20:05:31.080Z,22.97
2023-11-19T20:08:00.354Z,17.50
2023-11-19T20:10:27.445Z,19.10
2023-11-19T20:12:54.628Z,18.70
2023-11-19T20:15:26.698Z,19.67
2023-11-19T20:17:53.786Z,18.83
2023-11-19T20:20:20.754Z,23.63
2023-11-19T20:22:48.733Z,21.60
2023-11-19T20:25:15.871Z,20.60
2023-11-19T20:27:42.999Z,24.07
2023-11-19T20:30:10.578Z,26.80
2023-11-19T20:32:38.557Z,31.17
2023-11-19T20:35:08.180Z,24.90
2023-11-19T20:37:38.695Z,19.13
2023-11-19T20:40:06.812Z,21.20
2023-11-19T20:42:36.047Z,24.47
2023-11-19T20:45:05.238Z,28.37
2023-11-19T20:47:32.233Z,25.80
2023-11-19T20:49:59.186Z,20.77
2023-11-19T20:52:26.169Z,23.63
2023-11-19T20:54:53.134Z,22.77
2023-11-19T20:57:20.501Z,24.10
2023-11-19T20:59:47.917Z,23.20
2023-11-19T21:02:16.585Z,25.37
2023-11-19T21:04:44.206Z,22.30
2023-11-19T21:07:11.921Z,24.10
2023-11-19T21:09:38.999Z,25.37
2023-11-19T21:12:06.770Z,24.33
2023-11-19T21:14:33.880Z,23.03
2023-11-19T21:17:01.217Z,19.37
2023-11-19T21:19:46.479Z,19.60
2023-11-19T21:22:14.447Z,23.50
2023-11-19T21:24:42.824Z,22.23
2023-11-19T21:27:09.878Z,24.90
2023-11-19T21:29:36.850Z,21.90
2023-11-19T21:32:04.082Z,21.10
2023-11-19T21:34:30.960Z,20.90
2023-11-19T21:36:57.880Z,28.70
2023-11-19T21:39:24.820Z,23.00
2023-11-19T21:41:55.568Z,29.67
2023-11-19T21:44:23.684Z,26.53
2023-11-19T21:46:50.678Z,23.20
2023-11-19T21:49:17.609Z,19.97
2023-11-19T21:51:44.625Z,26.93
2023-11-19T21:54:12.305Z,18.67
2023-11-19T21:56:39.679Z,21.50
2023-11-19T21:59:06.668Z,17.03
2023-11-19T22:01:33.935Z,17.40
2023-11-19T22:04:01.234Z,23.13
2023-11-19T22:06:28.516Z,17.37
2023-11-19T22:08:55.464Z,22.40
2023-11-19T22:11:25.324Z,19.73
2023-11-19T22:13:52.639Z,16.10
2023-11-19T22:16:19.596Z,21.17
2023-11-19T22:18:46.601Z,18.97
2023-11-19T22:21:13.697Z,18.30
2023-11-19T22:23:41.410Z,16.57
2023-11-19T22:26:08.329Z,21.87
2023-11-19T22:28:37.531Z,16.30
2023-11-19T22:31:05.016Z,21.17
2023-11-19T22:33:32.029Z,20.27
2023-11-19T22:35:59.941Z,22.37
2023-11-19T22:38:27.077Z,16.37
2023-11-19T22:40:54.222Z,16.37
2023-11-19T22:43:21.615Z,20.80
2023-11-19T22:45:48.545Z,20.63
2023-11-19T22:48:15.601Z,22.20
2023-11-19T22:50:42.545Z,23.93
2023-11-19T22:53:09.505Z,22.83
2023-11-19T22:55:36.650Z,17.37
2023-11-19T22:58:04.545Z,23.63
2023-11-19T23:00:31.700Z,17.73
2023-11-19T23:03:00.962Z,22.13
2023-11-19T23:05:29.243Z,23.10
2023-11-19T23:07:56.410Z,19.60
2023-11-19T23:10:24.404Z,17.87
2023-11-19T23:12:51.977Z,19.23
2023-11-19T23:15:19.215Z,20.50
2023-11-19T23:17:46.227Z,20.63
2023-11-19T23:20:17.353Z,16.90
2023-11-19T23:22:44.876Z,21.60
2023-11-19T23:25:12.189Z,19.00
2023-11-19T23:27:39.303Z,24.00
2023-11-19T23:30:07.031Z,18.37
2023-11-19T23:32:35.637Z,19.47
2023-11-19T23:35:04.213Z,22.43
2023-11-19T23:37:31.344Z,15.77
2023-11-19T23:39:58.443Z,19.70
2023-11-19T23:42:25.542Z,18.37
2023-11-19T23:44:52.456Z,20.67
2023-11-19T23:47:20.510Z,19.00
2023-11-19T23:49:47.702Z,18.07
2023-11-19T23:52:14.940Z,13.13
2023-11-19T23:54:41.930Z,16.90
2023-11-19T23:57:08.927Z,16.67
2023-11-19T23:59:37.790Z,18.90
